Greenville Farm
1800 N 800 E, North Logan
Last Weather Update:08/30/2011 11:00:00 PM
Date
ETo
ETc
Rain
Irrigation
Req
Temp
Max
Temp
Min
Temp
Avg
Avg RH
Avg Wind
Avg Solar
inches
inches
incehs
inches
F
F
F
%
%
watts/m2
07/01/2011 0.24" 0.19" 0.00" 0.19" 80.3° 53.3° 67.1° 46.7% 3.0 MPH 30.7w/m2
07/02/2011 0.24" 0.20" 0.00" 0.20" 90.0° 52.0° 70.7° 46.7% 2.7 MPH 30.7w/m2
07/03/2011 0.27" 0.22" 0.00" 0.22" 95.0° 55.8° 76.0° 41.8% 3.5 MPH 31.2w/m2
07/04/2011 0.17" 0.14" 0.00" 0.14" 86.4° 64.1° 74.1° 45.3% 3.6 MPH 16.8w/m2
07/05/2011 0.15" 0.12" 0.00" 0.12" 82.3° 63.5° 72.8° 49.5% 3.1 MPH 15.9w/m2
07/06/2011 0.25" 0.20" 0.00" 0.20" 85.9° 56.0° 71.5° 52.3% 3.2 MPH 30.0w/m2
07/07/2011 0.09" 0.08" 0.06" 0.03" 77.4° 60.2° 68.3° 64.3% 2.7 MPH 10.1w/m2
07/08/2011 0.21" 0.17" 0.01" 0.17" 81.9° 59.6° 68.1° 61.7% 3.6 MPH 24.8w/m2
07/09/2011 0.23" 0.19" 0.02" 0.17" 85.1° 53.1° 66.3° 63.5% 3.8 MPH 27.2w/m2
07/10/2011 0.24" 0.20" 0.04" 0.16" 85.9° 54.8° 69.2° 59.5% 4.3 MPH 27.4w/m2
07/11/2011 0.24" 0.20" 0.01" 0.20" 86.0° 58.2° 71.6° 49.5% 3.5 MPH 29.2w/m2
07/12/2011 0.17" 0.14" 0.01" 0.13" 84.7° 62.6° 71.7° 49.3% 3.3 MPH 19.4w/m2
07/13/2011 0.27" 0.23" 0.00" 0.23" 85.6° 64.0° 75.6° 37.6% 5.4 MPH 28.8w/m2
07/14/2011 0.30" 0.25" 0.00" 0.25" 83.4° 61.1° 73.8° 30.4% 6.5 MPH 30.5w/m2
07/15/2011 0.25" 0.21" 0.00" 0.21" 84.5° 50.7° 68.8° 42.5% 3.5 MPH 30.4w/m2
07/16/2011 0.27" 0.23" 0.00" 0.23" 88.2° 53.6° 71.6° 37.7% 3.9 MPH 30.8w/m2
07/17/2011 0.25" 0.22" 0.00" 0.22" 92.0° 52.1° 73.3° 39.2% 3.5 MPH 30.0w/m2
07/18/2011 0.18" 0.15" 0.00" 0.15" 88.7° 69.2° 79.0° 40.8% 3.6 MPH 16.5w/m2
07/19/2011 0.26" 0.22" 0.00" 0.22" 90.4° 61.0° 76.5° 46.6% 4.4 MPH 25.9w/m2
07/20/2011 0.23" 0.20" 0.00" 0.20" 83.3° 53.2° 67.9° 45.7% 2.9 MPH 30.0w/m2
07/21/2011 0.24" 0.20" 0.00" 0.20" 86.7° 52.4° 69.8° 43.3% 3.0 MPH 29.4w/m2
07/22/2011 0.25" 0.22" 0.00" 0.22" 87.0° 53.5° 70.8° 40.4% 3.6 MPH 29.3w/m2
07/23/2011 0.24" 0.21" 0.00" 0.21" 85.5° 54.7° 70.3° 41.4% 3.2 MPH 29.5w/m2
07/24/2011 0.24" 0.21" 0.00" 0.21" 92.2° 53.3° 72.4° 42.0% 2.9 MPH 29.4w/m2
07/25/2011 0.23" 0.20" 0.00" 0.20" 90.5° 57.4° 74.0° 43.2% 4.4 MPH 22.9w/m2
07/26/2011 0.25" 0.22" 0.00" 0.22" 87.5° 61.6° 75.4° 44.7% 3.9 MPH 28.9w/m2
07/27/2011 0.23" 0.20" 0.00" 0.20" 84.3° 57.5° 71.8° 46.7% 3.0 MPH 27.9w/m2
07/28/2011 0.23" 0.21" 0.00" 0.21" 86.2° 56.0° 72.0° 44.7% 2.7 MPH 28.6w/m2
07/29/2011 0.23" 0.21" 0.00" 0.21" 90.8° 55.8° 73.0° 43.6% 2.7 MPH 28.4w/m2
07/30/2011 0.13" 0.12" 0.00" 0.12" 81.9° 57.0° 70.6° 50.6% 2.8 MPH 13.4w/m2
07/31/2011 0.14" 0.12" 0.02" 0.11" 82.2° 63.1° 70.0° 67.2% 3.3 MPH 14.0w/m2
Totals: 6.91" 5.88" 0.17" 5.74" 95.0° 50.7° 71.7° 47.0% 3.5 MPH 25.7w/m2